Terminal Aerodrome Forecast
Issued by NWS

Home | Current Version | Previous Version | Text Only | Print | Product List | Glossary On
Versions: 1 2 3 4 5 6 7 8 9 10 11 12 13 14 15
129
FTUS46 KPDT 070540
TAFRDM
TAF
KRDM 070540Z 0706/0806 17007KT P6SM BKN080 BKN180
     FM070800 17007KT P6SM BKN060
     FM071400 14006KT P6SM SCT060 SCT250=

USA.gov is the U.S. government's official web portal to all federal, state and local government web resources and services.